sensor_id;sensor_type;location;lat;lon;timestamp;temperature;humidity
5683;DHT22;2864;49.220;8.654;2023-07-28T00:01:25;17.40;99.90
5683;DHT22;2864;49.220;8.654;2023-07-28T00:03:50;17.40;99.90
5683;DHT22;2864;49.220;8.654;2023-07-28T00:06:16;17.60;99.90
5683;DHT22;2864;49.220;8.654;2023-07-28T00:08:42;17.40;99.90
5683;DHT22;2864;49.220;8.654;2023-07-28T00:11:11;17.40;99.90
5683;DHT22;2864;49.220;8.654;2023-07-28T00:13:41;17.40;99.90
5683;DHT22;2864;49.220;8.654;2023-07-28T00:16:07;17.40;99.90
5683;DHT22;2864;49.220;8.654;2023-07-28T00:18:33;17.40;99.90
5683;DHT22;2864;49.220;8.654;2023-07-28T00:20:58;17.40;99.90
5683;DHT22;2864;49.220;8.654;2023-07-28T00:23:24;17.40;99.90
5683;DHT22;2864;49.220;8.654;2023-07-28T00:25:50;17.40;99.90
5683;DHT22;2864;49.220;8.654;2023-07-28T00:28:15;17.40;99.90
5683;DHT22;2864;49.220;8.654;2023-07-28T00:30:41;17.40;99.90
5683;DHT22;2864;49.220;8.654;2023-07-28T00:33:06;17.50;99.90
5683;DHT22;2864;49.220;8.654;2023-07-28T00:35:32;17.40;99.90
5683;DHT22;2864;49.220;8.654;2023-07-28T00:37:58;17.40;99.90
5683;DHT22;2864;49.220;8.654;2023-07-28T00:40:23;18.00;99.90
5683;DHT22;2864;49.220;8.654;2023-07-28T00:42:49;17.40;99.90
5683;DHT22;2864;49.220;8.654;2023-07-28T00:45:15;17.40;99.90
5683;DHT22;2864;49.220;8.654;2023-07-28T00:47:41;17.40;99.90
5683;DHT22;2864;49.220;8.654;2023-07-28T00:50:08;17.40;99.90
5683;DHT22;2864;49.220;8.654;2023-07-28T00:52:35;17.40;99.90
5683;DHT22;2864;49.220;8.654;2023-07-28T00:55:01;17.40;99.90
5683;DHT22;2864;49.220;8.654;2023-07-28T00:57:27;17.40;99.90
5683;DHT22;2864;49.220;8.654;2023-07-28T00:59:53;17.40;99.90
5683;DHT22;2864;49.220;8.654;2023-07-28T01:02:19;17.40;99.90
5683;DHT22;2864;49.220;8.654;2023-07-28T01:04:45;17.40;99.90
5683;DHT22;2864;49.220;8.654;2023-07-28T01:07:16;17.50;99.90
5683;DHT22;2864;49.220;8.654;2023-07-28T01:09:55;17.40;99.90
5683;DHT22;2864;49.220;8.654;2023-07-28T01:12:24;17.40;99.90
5683;DHT22;2864;49.220;8.654;2023-07-28T01:14:49;17.40;99.90
5683;DHT22;2864;49.220;8.654;2023-07-28T01:17:15;17.40;99.90
5683;DHT22;2864;49.220;8.654;2023-07-28T01:19:41;17.40;99.90
5683;DHT22;2864;49.220;8.654;2023-07-28T01:22:28;17.40;99.90
5683;DHT22;2864;49.220;8.654;2023-07-28T01:25:05;17.30;99.90
5683;DHT22;2864;49.220;8.654;2023-07-28T01:27:32;17.30;99.90
5683;DHT22;2864;49.220;8.654;2023-07-28T01:29:58;17.30;99.90
5683;DHT22;2864;49.220;8.654;2023-07-28T01:32:24;17.40;99.90
5683;DHT22;2864;49.220;8.654;2023-07-28T01:34:49;17.40;99.90
5683;DHT22;2864;49.220;8.654;2023-07-28T01:37:15;19.80;99.90
5683;DHT22;2864;49.220;8.654;2023-07-28T01:39:41;17.40;99.90
5683;DHT22;2864;49.220;8.654;2023-07-28T01:42:07;17.50;99.90
5683;DHT22;2864;49.220;8.654;2023-07-28T01:44:32;17.30;99.90
5683;DHT22;2864;49.220;8.654;2023-07-28T01:46:58;18.60;99.90
5683;DHT22;2864;49.220;8.654;2023-07-28T01:49:23;17.40;99.90
5683;DHT22;2864;49.220;8.654;2023-07-28T01:51:49;17.40;99.90
5683;DHT22;2864;49.220;8.654;2023-07-28T01:54:14;17.40;99.90
5683;DHT22;2864;49.220;8.654;2023-07-28T01:56:40;17.30;99.90
5683;DHT22;2864;49.220;8.654;2023-07-28T01:59:05;17.30;99.90
5683;DHT22;2864;49.220;8.654;2023-07-28T02:01:31;17.30;99.90
5683;DHT22;2864;49.220;8.654;2023-07-28T02:03:56;17.30;99.90
5683;DHT22;2864;49.220;8.654;2023-07-28T02:06:22;17.20;99.90
5683;DHT22;2864;49.220;8.654;2023-07-28T02:08:47;17.20;99.90
5683;DHT22;2864;49.220;8.654;2023-07-28T02:11:13;17.20;99.90
5683;DHT22;2864;49.220;8.654;2023-07-28T02:13:38;19.00;99.90
5683;DHT22;2864;49.220;8.654;2023-07-28T02:16:04;17.20;99.90
5683;DHT22;2864;49.220;8.654;2023-07-28T02:18:30;17.20;99.90
5683;DHT22;2864;49.220;8.654;2023-07-28T02:20:55;17.20;99.90
5683;DHT22;2864;49.220;8.654;2023-07-28T02:23:21;17.30;99.90
5683;DHT22;2864;49.220;8.654;2023-07-28T02:25:46;17.30;99.90
5683;DHT22;2864;49.220;8.654;2023-07-28T02:28:12;17.30;99.90
5683;DHT22;2864;49.220;8.654;2023-07-28T02:30:37;18.70;99.90
5683;DHT22;2864;49.220;8.654;2023-07-28T02:33:03;17.30;99.90
5683;DHT22;2864;49.220;8.654;2023-07-28T02:35:28;17.20;99.90
5683;DHT22;2864;49.220;8.654;2023-07-28T02:37:54;17.20;99.90
5683;DHT22;2864;49.220;8.654;2023-07-28T02:40:20;17.40;99.90
5683;DHT22;2864;49.220;8.654;2023-07-28T02:42:45;17.20;99.90
5683;DHT22;2864;49.220;8.654;2023-07-28T02:45:11;17.20;99.90
5683;DHT22;2864;49.220;8.654;2023-07-28T02:47:37;17.30;99.90
5683;DHT22;2864;49.220;8.654;2023-07-28T02:50:02;17.30;99.90
5683;DHT22;2864;49.220;8.654;2023-07-28T02:52:28;17.30;99.90
5683;DHT22;2864;49.220;8.654;2023-07-28T02:54:55;17.30;99.90
5683;DHT22;2864;49.220;8.654;2023-07-28T02:57:20;17.40;99.90
5683;DHT22;2864;49.220;8.654;2023-07-28T02:59:46;18.60;99.90
5683;DHT22;2864;49.220;8.654;2023-07-28T03:02:11;18.80;99.90
5683;DHT22;2864;49.220;8.654;2023-07-28T03:04:37;17.30;99.90
5683;DHT22;2864;49.220;8.654;2023-07-28T03:07:03;17.30;99.90
5683;DHT22;2864;49.220;8.654;2023-07-28T03:09:28;17.30;99.90
5683;DHT22;2864;49.220;8.654;2023-07-28T03:11:54;18.70;99.90
5683;DHT22;2864;49.220;8.654;2023-07-28T03:14:20;17.40;99.90
5683;DHT22;2864;49.220;8.654;2023-07-28T03:16:45;18.60;99.90
5683;DHT22;2864;49.220;8.654;2023-07-28T03:19:11;17.40;99.90
5683;DHT22;2864;49.220;8.654;2023-07-28T03:21:36;17.40;99.90
5683;DHT22;2864;49.220;8.654;2023-07-28T03:24:02;17.40;99.90
5683;DHT22;2864;49.220;8.654;2023-07-28T03:26:28;17.40;99.90
5683;DHT22;2864;49.220;8.654;2023-07-28T03:28:53;17.30;99.90
5683;DHT22;2864;49.220;8.654;2023-07-28T03:31:19;17.80;99.90
5683;DHT22;2864;49.220;8.654;2023-07-28T03:33:44;17.40;99.90
5683;DHT22;2864;49.220;8.654;2023-07-28T03:36:10;17.40;99.90
5683;DHT22;2864;49.220;8.654;2023-07-28T03:38:35;17.40;99.90
5683;DHT22;2864;49.220;8.654;2023-07-28T03:41:01;17.40;99.90
5683;DHT22;2864;49.220;8.654;2023-07-28T03:43:26;17.40;99.90
5683;DHT22;2864;49.220;8.654;2023-07-28T03:45:52;17.40;99.90
5683;DHT22;2864;49.220;8.654;2023-07-28T03:48:17;17.40;99.90
5683;DHT22;2864;49.220;8.654;2023-07-28T03:50:43;17.50;99.90
5683;DHT22;2864;49.220;8.654;2023-07-28T03:53:09;17.40;99.90
5683;DHT22;2864;49.220;8.654;2023-07-28T03:55:35;17.40;99.90
5683;DHT22;2864;49.220;8.654;2023-07-28T03:58:00;17.40;99.90
5683;DHT22;2864;49.220;8.654;2023-07-28T04:00:26;17.40;99.90
5683;DHT22;2864;49.220;8.654;2023-07-28T04:02:51;17.50;99.90
5683;DHT22;2864;49.220;8.654;2023-07-28T04:05:17;18.20;99.90
5683;DHT22;2864;49.220;8.654;2023-07-28T04:07:42;17.40;99.90
5683;DHT22;2864;49.220;8.654;2023-07-28T04:10:08;17.40;99.90
5683;DHT22;2864;49.220;8.654;2023-07-28T04:12:34;17.50;99.90
5683;DHT22;2864;49.220;8.654;2023-07-28T04:14:59;17.50;99.90
5683;DHT22;2864;49.220;8.654;2023-07-28T04:17:25;17.50;99.90
5683;DHT22;2864;49.220;8.654;2023-07-28T04:19:50;18.80;99.90
5683;DHT22;2864;49.220;8.654;2023-07-28T04:22:16;17.70;99.90
5683;DHT22;2864;49.220;8.654;2023-07-28T04:24:46;17.60;99.90
5683;DHT22;2864;49.220;8.654;2023-07-28T04:27:13;17.60;99.90
5683;DHT22;2864;49.220;8.654;2023-07-28T04:29:38;18.70;99.90
5683;DHT22;2864;49.220;8.654;2023-07-28T04:32:04;17.50;99.90
5683;DHT22;2864;49.220;8.654;2023-07-28T04:34:33;17.50;99.90
5683;DHT22;2864;49.220;8.654;2023-07-28T04:36:58;17.50;99.90
5683;DHT22;2864;49.220;8.654;2023-07-28T04:39:24;17.50;99.90
5683;DHT22;2864;49.220;8.654;2023-07-28T04:41:50;17.60;99.90
5683;DHT22;2864;49.220;8.654;2023-07-28T04:44:15;17.50;99.90
5683;DHT22;2864;49.220;8.654;2023-07-28T04:46:41;17.50;99.90
5683;DHT22;2864;49.220;8.654;2023-07-28T04:49:06;17.50;99.90
5683;DHT22;2864;49.220;8.654;2023-07-28T04:51:32;17.50;99.90
5683;DHT22;2864;49.220;8.654;2023-07-28T04:53:57;18.40;99.90
5683;DHT22;2864;49.220;8.654;2023-07-28T04:56:23;17.60;99.90
5683;DHT22;2864;49.220;8.654;2023-07-28T04:58:48;17.50;99.90
5683;DHT22;2864;49.220;8.654;2023-07-28T05:01:14;17.50;99.90
5683;DHT22;2864;49.220;8.654;2023-07-28T05:03:39;17.60;99.90
5683;DHT22;2864;49.220;8.654;2023-07-28T05:06:05;18.30;99.90
5683;DHT22;2864;49.220;8.654;2023-07-28T05:08:30;17.60;99.90
5683;DHT22;2864;49.220;8.654;2023-07-28T05:10:56;17.60;99.90
5683;DHT22;2864;49.220;8.654;2023-07-28T05:13:22;17.60;99.90
5683;DHT22;2864;49.220;8.654;2023-07-28T05:15:47;17.60;99.90
5683;DHT22;2864;49.220;8.654;2023-07-28T05:18:13;17.60;99.90
5683;DHT22;2864;49.220;8.654;2023-07-28T05:20:38;17.60;99.90
5683;DHT22;2864;49.220;8.654;2023-07-28T05:23:04;17.60;99.90
5683;DHT22;2864;49.220;8.654;2023-07-28T05:25:29;18.70;99.90
5683;DHT22;2864;49.220;8.654;2023-07-28T05:27:55;18.50;99.90
5683;DHT22;2864;49.220;8.654;2023-07-28T05:30:21;17.60;99.90
5683;DHT22;2864;49.220;8.654;2023-07-28T05:32:47;17.60;99.90
5683;DHT22;2864;49.220;8.654;2023-07-28T05:35:13;17.70;99.90
5683;DHT22;2864;49.220;8.654;2023-07-28T05:37:40;17.70;99.90
5683;DHT22;2864;49.220;8.654;2023-07-28T05:40:06;17.70;99.90
5683;DHT22;2864;49.220;8.654;2023-07-28T05:42:31;17.80;99.90
5683;DHT22;2864;49.220;8.654;2023-07-28T05:47:25;17.80;99.90
5683;DHT22;2864;49.220;8.654;2023-07-28T05:49:51;17.80;99.90
5683;DHT22;2864;49.220;8.654;2023-07-28T05:52:19;17.80;99.90
5683;DHT22;2864;49.220;8.654;2023-07-28T05:54:44;17.80;99.90
5683;DHT22;2864;49.220;8.654;2023-07-28T05:57:10;17.90;99.90
5683;DHT22;2864;49.220;8.654;2023-07-28T05:59:36;17.80;99.90
5683;DHT22;2864;49.220;8.654;2023-07-28T06:02:01;17.90;99.90
5683;DHT22;2864;49.220;8.654;2023-07-28T06:04:27;17.90;99.90
5683;DHT22;2864;49.220;8.654;2023-07-28T06:06:52;17.90;99.90
5683;DHT22;2864;49.220;8.654;2023-07-28T06:09:18;17.90;99.90
5683;DHT22;2864;49.220;8.654;2023-07-28T06:11:44;17.90;99.90
5683;DHT22;2864;49.220;8.654;2023-07-28T06:14:09;17.80;99.90
5683;DHT22;2864;49.220;8.654;2023-07-28T06:16:35;17.90;99.90
5683;DHT22;2864;49.220;8.654;2023-07-28T06:19:01;17.90;99.90
5683;DHT22;2864;49.220;8.654;2023-07-28T06:21:26;18.00;99.90
5683;DHT22;2864;49.220;8.654;2023-07-28T06:23:52;18.00;99.90
5683;DHT22;2864;49.220;8.654;2023-07-28T06:26:17;18.00;99.90
5683;DHT22;2864;49.220;8.654;2023-07-28T06:28:43;18.00;99.90
5683;DHT22;2864;49.220;8.654;2023-07-28T06:31:08;18.10;99.90
5683;DHT22;2864;49.220;8.654;2023-07-28T06:33:35;20.50;99.90
5683;DHT22;2864;49.220;8.654;2023-07-28T06:36:00;18.10;99.90
5683;DHT22;2864;49.220;8.654;2023-07-28T06:38:26;19.30;99.90
5683;DHT22;2864;49.220;8.654;2023-07-28T06:40:52;18.20;99.90
5683;DHT22;2864;49.220;8.654;2023-07-28T06:43:18;18.30;99.90
5683;DHT22;2864;49.220;8.654;2023-07-28T06:45:44;18.40;99.90
5683;DHT22;2864;49.220;8.654;2023-07-28T06:48:10;18.40;99.90
5683;DHT22;2864;49.220;8.654;2023-07-28T06:50:35;18.50;99.90
5683;DHT22;2864;49.220;8.654;2023-07-28T06:53:01;19.50;99.90
5683;DHT22;2864;49.220;8.654;2023-07-28T06:55:26;18.60;99.90
5683;DHT22;2864;49.220;8.654;2023-07-28T06:57:52;20.30;99.90
5683;DHT22;2864;49.220;8.654;2023-07-28T07:00:18;18.60;99.90
5683;DHT22;2864;49.220;8.654;2023-07-28T07:02:43;18.50;99.90
5683;DHT22;2864;49.220;8.654;2023-07-28T07:05:09;18.60;99.90
5683;DHT22;2864;49.220;8.654;2023-07-28T07:07:35;18.60;99.90
5683;DHT22;2864;49.220;8.654;2023-07-28T07:10:01;18.50;99.90
5683;DHT22;2864;49.220;8.654;2023-07-28T07:12:26;18.60;99.90
5683;DHT22;2864;49.220;8.654;2023-07-28T07:14:52;18.70;99.90
5683;DHT22;2864;49.220;8.654;2023-07-28T07:17:17;20.00;99.90
5683;DHT22;2864;49.220;8.654;2023-07-28T07:19:43;18.80;99.90
5683;DHT22;2864;49.220;8.654;2023-07-28T07:22:09;18.70;99.90
5683;DHT22;2864;49.220;8.654;2023-07-28T07:24:35;18.70;99.90
5683;DHT22;2864;49.220;8.654;2023-07-28T07:27:00;18.70;99.90
5683;DHT22;2864;49.220;8.654;2023-07-28T07:29:26;19.40;99.90
5683;DHT22;2864;49.220;8.654;2023-07-28T07:31:51;20.50;99.90
5683;DHT22;2864;49.220;8.654;2023-07-28T07:34:21;18.70;99.90
5683;DHT22;2864;49.220;8.654;2023-07-28T07:36:47;18.90;99.90
5683;DHT22;2864;49.220;8.654;2023-07-28T07:39:13;18.80;99.90
5683;DHT22;2864;49.220;8.654;2023-07-28T07:41:38;18.80;99.90
5683;DHT22;2864;49.220;8.654;2023-07-28T07:44:04;18.80;99.90
5683;DHT22;2864;49.220;8.654;2023-07-28T07:46:30;18.80;99.90
5683;DHT22;2864;49.220;8.654;2023-07-28T07:48:56;18.80;99.90
5683;DHT22;2864;49.220;8.654;2023-07-28T07:51:21;18.80;99.90
5683;DHT22;2864;49.220;8.654;2023-07-28T07:53:47;18.90;99.90
5683;DHT22;2864;49.220;8.654;2023-07-28T07:56:12;19.00;99.90
5683;DHT22;2864;49.220;8.654;2023-07-28T07:58:38;18.90;99.90
5683;DHT22;2864;49.220;8.654;2023-07-28T08:01:04;19.10;99.90
5683;DHT22;2864;49.220;8.654;2023-07-28T08:03:30;19.20;99.90
5683;DHT22;2864;49.220;8.654;2023-07-28T08:05:57;19.20;99.90
5683;DHT22;2864;49.220;8.654;2023-07-28T08:08:23;19.30;99.90
5683;DHT22;2864;49.220;8.654;2023-07-28T08:10:50;19.10;99.90
5683;DHT22;2864;49.220;8.654;2023-07-28T08:13:16;19.20;99.90
5683;DHT22;2864;49.220;8.654;2023-07-28T08:15:45;19.80;99.90
5683;DHT22;2864;49.220;8.654;2023-07-28T08:18:14;19.30;99.90
5683;DHT22;2864;49.220;8.654;2023-07-28T08:20:40;19.40;99.90
5683;DHT22;2864;49.220;8.654;2023-07-28T08:23:05;19.50;99.90
5683;DHT22;2864;49.220;8.654;2023-07-28T08:25:31;20.50;99.90
5683;DHT22;2864;49.220;8.654;2023-07-28T08:27:57;19.40;99.90
5683;DHT22;2864;49.220;8.654;2023-07-28T08:30:22;19.60;99.90
5683;DHT22;2864;49.220;8.654;2023-07-28T08:32:48;19.70;99.90
5683;DHT22;2864;49.220;8.654;2023-07-28T08:35:14;20.40;99.90
5683;DHT22;2864;49.220;8.654;2023-07-28T08:37:40;21.00;99.90
5683;DHT22;2864;49.220;8.654;2023-07-28T08:40:06;20.30;99.90
5683;DHT22;2864;49.220;8.654;2023-07-28T08:42:37;20.40;99.90
5683;DHT22;2864;49.220;8.654;2023-07-28T08:45:04;20.40;99.90
5683;DHT22;2864;49.220;8.654;2023-07-28T08:47:34;20.40;99.90
5683;DHT22;2864;49.220;8.654;2023-07-28T08:50:00;20.50;99.90
5683;DHT22;2864;49.220;8.654;2023-07-28T08:52:25;20.50;99.90
5683;DHT22;2864;49.220;8.654;2023-07-28T08:54:51;20.70;99.90
5683;DHT22;2864;49.220;8.654;2023-07-28T08:57:17;20.70;99.90
5683;DHT22;2864;49.220;8.654;2023-07-28T08:59:44;20.60;99.90
5683;DHT22;2864;49.220;8.654;2023-07-28T09:02:14;20.50;99.90
5683;DHT22;2864;49.220;8.654;2023-07-28T09:04:42;20.50;99.90
5683;DHT22;2864;49.220;8.654;2023-07-28T09:07:07;20.50;99.90
5683;DHT22;2864;49.220;8.654;2023-07-28T09:09:33;18.60;99.90
5683;DHT22;2864;49.220;8.654;2023-07-28T09:11:59;20.40;99.90
5683;DHT22;2864;49.220;8.654;2023-07-28T09:14:26;20.30;99.90
5683;DHT22;2864;49.220;8.654;2023-07-28T09:16:52;20.50;99.90
5683;DHT22;2864;49.220;8.654;2023-07-28T09:19:20;20.60;99.90
5683;DHT22;2864;49.220;8.654;2023-07-28T09:21:57;20.60;99.90
5683;DHT22;2864;49.220;8.654;2023-07-28T09:24:30;21.60;99.90
5683;DHT22;2864;49.220;8.654;2023-07-28T09:26:58;21.20;99.90
5683;DHT22;2864;49.220;8.654;2023-07-28T09:29:23;21.40;99.90
5683;DHT22;2864;49.220;8.654;2023-07-28T09:31:50;22.10;99.90
5683;DHT22;2864;49.220;8.654;2023-07-28T09:34:28;22.40;99.90
5683;DHT22;2864;49.220;8.654;2023-07-28T09:36:57;22.50;99.90
5683;DHT22;2864;49.220;8.654;2023-07-28T09:39:23;23.00;99.90
5683;DHT22;2864;49.220;8.654;2023-07-28T09:41:49;22.90;99.90
5683;DHT22;2864;49.220;8.654;2023-07-28T09:44:16;22.60;99.90
5683;DHT22;2864;49.220;8.654;2023-07-28T09:46:55;22.70;99.90
5683;DHT22;2864;49.220;8.654;2023-07-28T09:49:28;22.90;99.90
5683;DHT22;2864;49.220;8.654;2023-07-28T09:51:57;22.80;99.90
5683;DHT22;2864;49.220;8.654;2023-07-28T09:54:28;22.70;99.90
5683;DHT22;2864;49.220;8.654;2023-07-28T09:56:56;22.90;99.90
5683;DHT22;2864;49.220;8.654;2023-07-28T09:59:31;23.20;99.90
5683;DHT22;2864;49.220;8.654;2023-07-28T10:01:58;22.90;99.90
5683;DHT22;2864;49.220;8.654;2023-07-28T10:04:23;23.60;99.90
5683;DHT22;2864;49.220;8.654;2023-07-28T10:06:51;23.00;99.90
5683;DHT22;2864;49.220;8.654;2023-07-28T10:09:25;22.90;99.90
5683;DHT22;2864;49.220;8.654;2023-07-28T10:11:50;22.80;99.90
5683;DHT22;2864;49.220;8.654;2023-07-28T10:14:42;22.80;99.90
5683;DHT22;2864;49.220;8.654;2023-07-28T10:17:15;22.70;99.90
5683;DHT22;2864;49.220;8.654;2023-07-28T10:19:41;22.70;99.90
5683;DHT22;2864;49.220;8.654;2023-07-28T10:22:10;22.50;99.90
5683;DHT22;2864;49.220;8.654;2023-07-28T10:25:02;22.30;99.90
5683;DHT22;2864;49.220;8.654;2023-07-28T10:30:01;22.40;99.90
5683;DHT22;2864;49.220;8.654;2023-07-28T10:32:36;23.90;99.90
5683;DHT22;2864;49.220;8.654;2023-07-28T10:35:07;22.70;99.90
5683;DHT22;2864;49.220;8.654;2023-07-28T10:37:34;22.80;99.90
5683;DHT22;2864;49.220;8.654;2023-07-28T10:42:48;23.00;99.90
5683;DHT22;2864;49.220;8.654;2023-07-28T10:45:13;23.20;99.90
5683;DHT22;2864;49.220;8.654;2023-07-28T10:47:41;22.60;99.90
5683;DHT22;2864;49.220;8.654;2023-07-28T10:50:09;22.30;99.90
5683;DHT22;2864;49.220;8.654;2023-07-28T10:52:42;22.00;99.90
5683;DHT22;2864;49.220;8.654;2023-07-28T10:55:34;21.90;99.90
5683;DHT22;2864;49.220;8.654;2023-07-28T10:58:00;22.10;99.90
5683;DHT22;2864;49.220;8.654;2023-07-28T11:00:26;21.90;99.90
5683;DHT22;2864;49.220;8.654;2023-07-28T11:02:52;21.60;99.90
5683;DHT22;2864;49.220;8.654;2023-07-28T11:05:36;21.30;99.90
5683;DHT22;2864;49.220;8.654;2023-07-28T11:08:03;21.50;99.90
5683;DHT22;2864;49.220;8.654;2023-07-28T11:10:29;21.40;99.90
5683;DHT22;2864;49.220;8.654;2023-07-28T11:12:58;21.40;99.90
5683;DHT22;2864;49.220;8.654;2023-07-28T11:15:25;21.30;99.90
5683;DHT22;2864;49.220;8.654;2023-07-28T11:17:51;21.60;99.90
5683;DHT22;2864;49.220;8.654;2023-07-28T11:20:23;21.50;99.90
5683;DHT22;2864;49.220;8.654;2023-07-28T11:23:00;21.50;99.90
5683;DHT22;2864;49.220;8.654;2023-07-28T11:51:20;21.70;99.90
5683;DHT22;2864;49.220;8.654;2023-07-28T11:53:45;21.80;99.90
5683;DHT22;2864;49.220;8.654;2023-07-28T11:56:11;21.90;99.90
5683;DHT22;2864;49.220;8.654;2023-07-28T11:58:36;21.90;99.90
5683;DHT22;2864;49.220;8.654;2023-07-28T12:01:07;21.80;99.90
5683;DHT22;2864;49.220;8.654;2023-07-28T12:03:33;21.80;99.90
5683;DHT22;2864;49.220;8.654;2023-07-28T12:06:04;21.80;99.90
5683;DHT22;2864;49.220;8.654;2023-07-28T12:08:36;21.90;99.90
5683;DHT22;2864;49.220;8.654;2023-07-28T12:11:02;21.90;99.90
5683;DHT22;2864;49.220;8.654;2023-07-28T12:13:27;21.80;99.90
5683;DHT22;2864;49.220;8.654;2023-07-28T12:15:54;21.90;99.90
5683;DHT22;2864;49.220;8.654;2023-07-28T12:18:20;22.00;99.90
5683;DHT22;2864;49.220;8.654;2023-07-28T12:20:47;22.00;99.90
5683;DHT22;2864;49.220;8.654;2023-07-28T12:23:22;21.90;99.90
5683;DHT22;2864;49.220;8.654;2023-07-28T12:25:49;21.80;99.90
5683;DHT22;2864;49.220;8.654;2023-07-28T12:28:20;21.70;99.90
5683;DHT22;2864;49.220;8.654;2023-07-28T12:30:46;21.60;99.90
5683;DHT22;2864;49.220;8.654;2023-07-28T12:33:14;21.40;99.90
5683;DHT22;2864;49.220;8.654;2023-07-28T12:35:40;21.20;99.90
5683;DHT22;2864;49.220;8.654;2023-07-28T12:38:06;21.00;99.90
5683;DHT22;2864;49.220;8.654;2023-07-28T12:40:32;23.10;99.90
5683;DHT22;2864;49.220;8.654;2023-07-28T12:43:00;20.80;99.90
5683;DHT22;2864;49.220;8.654;2023-07-28T12:45:25;21.80;99.90
5683;DHT22;2864;49.220;8.654;2023-07-28T12:47:52;20.60;99.90
5683;DHT22;2864;49.220;8.654;2023-07-28T12:50:21;20.60;99.90
5683;DHT22;2864;49.220;8.654;2023-07-28T12:52:48;20.60;99.90
5683;DHT22;2864;49.220;8.654;2023-07-28T12:55:14;20.60;99.90
5683;DHT22;2864;49.220;8.654;2023-07-28T12:57:41;20.70;99.90
5683;DHT22;2864;49.220;8.654;2023-07-28T13:00:07;20.70;99.90
5683;DHT22;2864;49.220;8.654;2023-07-28T13:02:42;20.70;99.90
5683;DHT22;2864;49.220;8.654;2023-07-28T13:05:09;20.80;99.90
5683;DHT22;2864;49.220;8.654;2023-07-28T13:07:37;22.40;99.90
5683;DHT22;2864;49.220;8.654;2023-07-28T13:10:03;20.80;99.90
5683;DHT22;2864;49.220;8.654;2023-07-28T13:12:29;20.60;99.90
5683;DHT22;2864;49.220;8.654;2023-07-28T13:14:55;20.30;99.90
5683;DHT22;2864;49.220;8.654;2023-07-28T13:17:20;20.20;99.90
5683;DHT22;2864;49.220;8.654;2023-07-28T13:19:46;22.50;99.90
5683;DHT22;2864;49.220;8.654;2023-07-28T13:22:11;21.70;99.90
5683;DHT22;2864;49.220;8.654;2023-07-28T13:24:37;20.00;99.90
5683;DHT22;2864;49.220;8.654;2023-07-28T13:27:04;20.20;99.90
5683;DHT22;2864;49.220;8.654;2023-07-28T13:29:29;19.90;99.90
5683;DHT22;2864;49.220;8.654;2023-07-28T13:31:58;19.90;99.90
5683;DHT22;2864;49.220;8.654;2023-07-28T13:34:24;19.90;99.90
5683;DHT22;2864;49.220;8.654;2023-07-28T13:36:49;19.80;99.90
5683;DHT22;2864;49.220;8.654;2023-07-28T13:39:15;19.80;99.90
5683;DHT22;2864;49.220;8.654;2023-07-28T13:41:40;19.60;99.90
5683;DHT22;2864;49.220;8.654;2023-07-28T13:44:06;20.70;99.90
5683;DHT22;2864;49.220;8.654;2023-07-28T13:46:32;19.60;99.90
5683;DHT22;2864;49.220;8.654;2023-07-28T13:48:57;19.50;99.90
5683;DHT22;2864;49.220;8.654;2023-07-28T13:51:23;19.70;99.90
5683;DHT22;2864;49.220;8.654;2023-07-28T13:53:48;19.70;99.90
5683;DHT22;2864;49.220;8.654;2023-07-28T13:56:14;19.70;99.90
5683;DHT22;2864;49.220;8.654;2023-07-28T13:58:39;19.90;99.90
5683;DHT22;2864;49.220;8.654;2023-07-28T14:01:05;20.00;99.90
5683;DHT22;2864;49.220;8.654;2023-07-28T14:03:31;20.00;99.90
5683;DHT22;2864;49.220;8.654;2023-07-28T14:05:56;20.10;99.90
5683;DHT22;2864;49.220;8.654;2023-07-28T14:08:27;21.10;99.90
5683;DHT22;2864;49.220;8.654;2023-07-28T14:10:52;20.10;99.90
5683;DHT22;2864;49.220;8.654;2023-07-28T14:13:18;21.40;99.90
5683;DHT22;2864;49.220;8.654;2023-07-28T14:15:44;20.30;99.90
5683;DHT22;2864;49.220;8.654;2023-07-28T14:18:09;20.40;99.90
5683;DHT22;2864;49.220;8.654;2023-07-28T14:20:35;20.50;99.90
5683;DHT22;2864;49.220;8.654;2023-07-28T14:23:00;22.40;99.90
5683;DHT22;2864;49.220;8.654;2023-07-28T14:25:27;20.60;99.90
5683;DHT22;2864;49.220;8.654;2023-07-28T14:27:52;20.60;99.90
5683;DHT22;2864;49.220;8.654;2023-07-28T14:30:18;23.40;99.90
5683;DHT22;2864;49.220;8.654;2023-07-28T14:32:44;20.70;99.90
5683;DHT22;2864;49.220;8.654;2023-07-28T14:35:09;21.10;99.90
5683;DHT22;2864;49.220;8.654;2023-07-28T14:37:35;20.70;99.90
5683;DHT22;2864;49.220;8.654;2023-07-28T14:40:00;20.50;99.90
5683;DHT22;2864;49.220;8.654;2023-07-28T14:42:26;20.60;99.90
5683;DHT22;2864;49.220;8.654;2023-07-28T14:44:52;22.00;99.90
5683;DHT22;2864;49.220;8.654;2023-07-28T14:47:17;20.50;99.90
5683;DHT22;2864;49.220;8.654;2023-07-28T14:49:43;20.50;99.90
5683;DHT22;2864;49.220;8.654;2023-07-28T14:52:09;20.40;99.90
5683;DHT22;2864;49.220;8.654;2023-07-28T14:54:34;20.40;99.90
5683;DHT22;2864;49.220;8.654;2023-07-28T14:57:00;20.50;99.90
5683;DHT22;2864;49.220;8.654;2023-07-28T14:59:25;20.40;99.90
5683;DHT22;2864;49.220;8.654;2023-07-28T15:01:51;20.50;99.90
5683;DHT22;2864;49.220;8.654;2023-07-28T15:04:17;20.40;99.90
5683;DHT22;2864;49.220;8.654;2023-07-28T15:06:42;20.40;99.90
5683;DHT22;2864;49.220;8.654;2023-07-28T15:09:08;21.50;99.90
5683;DHT22;2864;49.220;8.654;2023-07-28T15:11:33;20.40;99.90
5683;DHT22;2864;49.220;8.654;2023-07-28T15:13:59;20.30;99.90
5683;DHT22;2864;49.220;8.654;2023-07-28T15:16:24;20.20;99.90
5683;DHT22;2864;49.220;8.654;2023-07-28T15:18:50;20.30;99.90
5683;DHT22;2864;49.220;8.654;2023-07-28T15:21:15;20.20;99.90
5683;DHT22;2864;49.220;8.654;2023-07-28T15:23:42;20.30;99.90
5683;DHT22;2864;49.220;8.654;2023-07-28T15:26:08;20.20;99.90
5683;DHT22;2864;49.220;8.654;2023-07-28T15:28:34;20.20;99.90
5683;DHT22;2864;49.220;8.654;2023-07-28T15:30:59;20.40;99.90
5683;DHT22;2864;49.220;8.654;2023-07-28T15:33:25;20.00;99.90
5683;DHT22;2864;49.220;8.654;2023-07-28T15:35:54;19.90;99.90
5683;DHT22;2864;49.220;8.654;2023-07-28T15:38:20;21.50;99.90
5683;DHT22;2864;49.220;8.654;2023-07-28T15:40:46;21.00;99.90
5683;DHT22;2864;49.220;8.654;2023-07-28T15:43:11;20.00;99.90
5683;DHT22;2864;49.220;8.654;2023-07-28T15:45:37;19.90;99.90
5683;DHT22;2864;49.220;8.654;2023-07-28T15:48:02;19.90;99.90
5683;DHT22;2864;49.220;8.654;2023-07-28T15:50:28;21.40;99.90
5683;DHT22;2864;49.220;8.654;2023-07-28T15:52:54;20.10;99.90
5683;DHT22;2864;49.220;8.654;2023-07-28T15:55:19;22.40;99.90
5683;DHT22;2864;49.220;8.654;2023-07-28T15:57:45;20.10;99.90
5683;DHT22;2864;49.220;8.654;2023-07-28T16:00:11;20.20;99.90
5683;DHT22;2864;49.220;8.654;2023-07-28T16:02:40;20.20;99.90
5683;DHT22;2864;49.220;8.654;2023-07-28T16:05:06;21.20;99.90
5683;DHT22;2864;49.220;8.654;2023-07-28T16:07:32;20.20;99.90
5683;DHT22;2864;49.220;8.654;2023-07-28T16:09:58;20.10;99.90
5683;DHT22;2864;49.220;8.654;2023-07-28T16:12:24;20.10;99.90
5683;DHT22;2864;49.220;8.654;2023-07-28T16:14:50;20.20;99.90
5683;DHT22;2864;49.220;8.654;2023-07-28T16:17:15;20.10;99.90
5683;DHT22;2864;49.220;8.654;2023-07-28T16:19:41;20.10;99.90
5683;DHT22;2864;49.220;8.654;2023-07-28T16:22:06;20.30;99.90
5683;DHT22;2864;49.220;8.654;2023-07-28T16:24:32;17.80;99.90
5683;DHT22;2864;49.220;8.654;2023-07-28T16:26:57;20.10;99.90
5683;DHT22;2864;49.220;8.654;2023-07-28T16:29:23;21.10;99.90
5683;DHT22;2864;49.220;8.654;2023-07-28T16:31:49;20.60;99.90